createdAt,value
2017-08-08T00:00:54.633Z,14.77
2017-08-08T00:03:22.418Z,14.78
2017-08-08T00:05:50.213Z,14.96
2017-08-08T00:08:17.945Z,14.91
2017-08-08T00:10:45.678Z,15.05
2017-08-08T00:13:13.424Z,15.04
2017-08-08T00:15:41.120Z,14.99
2017-08-08T00:18:09.123Z,15.04
2017-08-08T00:20:36.838Z,15.04
2017-08-08T00:23:04.544Z,14.94
2017-08-08T00:25:32.270Z,14.90
2017-08-08T00:27:59.954Z,14.81
2017-08-08T00:30:27.677Z,14.72
2017-08-08T00:32:55.544Z,14.80
2017-08-08T00:35:23.318Z,14.60
2017-08-08T00:37:51.006Z,14.64
2017-08-08T00:40:18.742Z,14.61
2017-08-08T00:42:46.460Z,14.79
2017-08-08T00:45:14.214Z,14.78
2017-08-08T00:47:41.929Z,14.67
2017-08-08T00:50:10.564Z,14.60
2017-08-08T00:52:38.279Z,14.52
2017-08-08T00:55:06.278Z,14.52
2017-08-08T00:57:33.987Z,14.48
2017-08-08T01:00:01.679Z,14.65
2017-08-08T01:02:29.396Z,14.48
2017-08-08T01:04:57.131Z,14.38
2017-08-08T01:07:24.892Z,14.41
2017-08-08T01:09:52.603Z,14.41
2017-08-08T01:12:20.311Z,14.49
2017-08-08T01:14:48.148Z,14.30
2017-08-08T01:17:15.837Z,14.20
2017-08-08T01:19:43.673Z,14.19
2017-08-08T01:22:11.457Z,14.23
2017-08-08T01:24:39.185Z,14.13
2017-08-08T01:27:06.888Z,14.27
2017-08-08T01:29:34.634Z,14.26
2017-08-08T01:32:02.439Z,14.27
2017-08-08T01:34:30.148Z,14.02
2017-08-08T01:36:57.927Z,14.05
2017-08-08T01:39:25.642Z,14.08
2017-08-08T01:41:53.417Z,13.86
2017-08-08T01:44:21.136Z,13.94
2017-08-08T01:46:48.861Z,14.06
2017-08-08T01:49:16.621Z,13.95
2017-08-08T01:51:44.361Z,13.93
2017-08-08T01:54:12.121Z,13.99
2017-08-08T01:56:39.946Z,13.86
2017-08-08T01:59:07.694Z,13.82
2017-08-08T02:01:35.492Z,13.88
2017-08-08T02:04:03.249Z,13.67
2017-08-08T02:06:31.035Z,13.80
2017-08-08T02:08:58.816Z,13.73
2017-08-08T02:11:26.605Z,13.71
2017-08-08T02:13:54.304Z,13.76
2017-08-08T02:16:22.021Z,13.69
2017-08-08T02:18:49.797Z,13.60
2017-08-08T02:21:17.546Z,13.67
2017-08-08T02:23:45.249Z,13.38
2017-08-08T02:26:13.053Z,13.50
2017-08-08T02:28:40.749Z,13.56
2017-08-08T02:31:08.458Z,13.58
2017-08-08T02:33:36.149Z,13.60
2017-08-08T02:36:03.871Z,13.58
2017-08-08T02:38:31.666Z,13.53
2017-08-08T02:40:59.346Z,13.56
2017-08-08T02:43:27.172Z,13.43
2017-08-08T02:45:54.970Z,13.38
2017-08-08T02:48:22.754Z,13.55
2017-08-08T02:50:50.461Z,13.55
2017-08-08T02:53:18.192Z,13.45
2017-08-08T02:55:45.927Z,13.13
2017-08-08T02:58:13.736Z,13.23
2017-08-08T03:00:41.426Z,13.30
2017-08-08T03:03:09.161Z,13.21
2017-08-08T03:05:36.922Z,13.20
2017-08-08T03:08:04.589Z,13.16
2017-08-08T03:10:32.340Z,13.16
2017-08-08T03:13:00.023Z,13.30
2017-08-08T03:15:27.765Z,13.33
2017-08-08T03:17:55.468Z,13.38
2017-08-08T03:20:23.166Z,13.40
2017-08-08T03:22:50.904Z,13.34
2017-08-08T03:25:18.599Z,13.32
2017-08-08T03:27:46.473Z,13.36
2017-08-08T03:30:14.534Z,13.20
2017-08-08T03:32:42.294Z,13.16
2017-08-08T03:35:10.020Z,13.08
2017-08-08T03:37:37.747Z,12.80
2017-08-08T03:40:05.452Z,12.81
2017-08-08T03:42:33.151Z,13.03
2017-08-08T03:45:00.945Z,13.14
2017-08-08T03:47:28.712Z,13.08
2017-08-08T03:49:56.444Z,13.14
2017-08-08T03:52:24.177Z,13.09
2017-08-08T03:54:51.956Z,13.01
2017-08-08T03:57:19.680Z,12.99
2017-08-08T03:59:47.413Z,13.08
2017-08-08T04:02:15.192Z,13.00
2017-08-08T04:04:42.873Z,12.95
2017-08-08T04:07:10.647Z,12.89
2017-08-08T04:09:38.418Z,12.84
2017-08-08T04:12:06.220Z,12.89
2017-08-08T04:14:33.975Z,12.98
2017-08-08T04:17:01.745Z,12.92
2017-08-08T04:19:29.456Z,12.84
2017-08-08T04:21:57.196Z,12.93
2017-08-08T04:24:24.896Z,12.90
2017-08-08T04:26:52.585Z,12.98
2017-08-08T04:29:20.369Z,12.87
2017-08-08T04:31:48.142Z,12.90
2017-08-08T04:34:15.881Z,12.93
2017-08-08T04:36:43.571Z,13.01
2017-08-08T04:39:11.474Z,12.89
2017-08-08T04:41:39.176Z,12.83
2017-08-08T04:44:06.900Z,12.97
2017-08-08T04:46:34.656Z,12.99
2017-08-08T04:49:02.371Z,13.08
2017-08-08T04:51:30.453Z,13.01
2017-08-08T04:53:58.199Z,13.10
2017-08-08T04:56:25.905Z,13.00
2017-08-08T04:58:53.644Z,13.08
2017-08-08T05:01:21.448Z,13.24
2017-08-08T05:03:49.241Z,13.19
2017-08-08T05:06:17.058Z,13.37
2017-08-08T05:08:44.797Z,13.64
2017-08-08T05:11:12.571Z,13.75
2017-08-08T05:13:40.333Z,13.93
2017-08-08T05:16:08.035Z,14.07
2017-08-08T05:18:35.827Z,14.15
2017-08-08T05:21:03.567Z,14.56
2017-08-08T05:23:31.319Z,14.70
2017-08-08T05:25:59.026Z,14.87
2017-08-08T05:28:26.759Z,15.14
2017-08-08T05:30:54.555Z,15.48
2017-08-08T05:33:22.297Z,15.50
2017-08-08T05:35:50.135Z,15.70
2017-08-08T05:38:17.790Z,15.87
2017-08-08T05:40:45.510Z,16.10
2017-08-08T05:43:13.269Z,16.23
2017-08-08T05:45:41.051Z,16.30
2017-08-08T05:48:09.093Z,16.68
2017-08-08T05:50:36.801Z,16.82
2017-08-08T05:53:04.533Z,17.07
2017-08-08T05:55:32.309Z,17.16
2017-08-08T05:58:00.230Z,17.36
2017-08-08T06:00:27.959Z,17.48
2017-08-08T06:02:55.676Z,17.64
2017-08-08T06:05:23.437Z,17.79
2017-08-08T06:07:51.148Z,18.17
2017-08-08T06:10:18.929Z,18.27
2017-08-08T06:12:47.670Z,18.38
2017-08-08T06:15:15.405Z,18.60
2017-08-08T06:17:43.098Z,18.77
2017-08-08T06:20:10.878Z,18.65
2017-08-08T06:22:38.581Z,18.82
2017-08-08T06:25:06.304Z,18.99
2017-08-08T06:27:34.065Z,19.10
2017-08-08T06:30:01.772Z,19.18
2017-08-08T06:32:29.611Z,19.25
2017-08-08T06:34:57.414Z,19.18
2017-08-08T06:37:25.116Z,18.59
2017-08-08T06:39:52.830Z,19.00
2017-08-08T06:42:20.595Z,18.88
2017-08-08T06:44:48.305Z,18.52
2017-08-08T06:47:16.103Z,18.67
2017-08-08T06:49:43.801Z,19.10
2017-08-08T06:52:11.502Z,19.34
2017-08-08T06:54:39.290Z,19.38
2017-08-08T06:57:07.142Z,19.44
2017-08-08T06:59:34.868Z,19.14
2017-08-08T07:02:02.588Z,18.87
2017-08-08T07:04:30.772Z,19.71
2017-08-08T07:06:58.836Z,20.05
2017-08-08T07:09:26.639Z,20.37
2017-08-08T07:11:54.620Z,20.97
2017-08-08T07:14:22.457Z,22.04
2017-08-08T07:16:50.433Z,22.47
2017-08-08T07:19:18.248Z,22.57
2017-08-08T07:21:45.947Z,22.67
2017-08-08T07:24:13.722Z,23.01
2017-08-08T07:26:41.495Z,23.20
2017-08-08T07:29:09.288Z,23.33
2017-08-08T07:31:36.995Z,23.16
2017-08-08T07:34:04.809Z,22.71
2017-08-08T07:36:32.598Z,22.49
2017-08-08T07:39:00.317Z,22.98
2017-08-08T07:41:28.054Z,23.05
2017-08-08T07:43:55.770Z,23.00
2017-08-08T07:46:23.568Z,23.29
2017-08-08T07:48:51.307Z,23.16
2017-08-08T07:51:19.056Z,23.04
2017-08-08T07:53:47.610Z,23.10
2017-08-08T07:56:15.355Z,22.98
2017-08-08T07:58:43.110Z,23.25
2017-08-08T08:01:10.813Z,23.52
2017-08-08T08:03:38.731Z,22.90
2017-08-08T08:06:06.457Z,22.92
2017-08-08T08:08:34.196Z,22.98
2017-08-08T08:11:02.266Z,23.18
2017-08-08T08:13:29.956Z,23.59
2017-08-08T08:15:57.659Z,23.83
2017-08-08T08:18:25.447Z,24.21
2017-08-08T08:20:53.164Z,23.66
2017-08-08T08:23:20.891Z,24.25
2017-08-08T08:25:48.658Z,24.75
2017-08-08T08:28:16.424Z,24.56
2017-08-08T08:30:44.194Z,24.14
2017-08-08T08:33:11.969Z,24.42
2017-08-08T08:35:39.760Z,24.84
2017-08-08T08:38:07.465Z,24.44
2017-08-08T08:40:35.231Z,24.56
2017-08-08T08:43:02.990Z,24.30
2017-08-08T08:45:30.718Z,24.09
2017-08-08T08:47:58.661Z,24.21
2017-08-08T08:50:26.416Z,24.47
2017-08-08T08:52:54.419Z,24.74
2017-08-08T08:55:22.148Z,24.27
2017-08-08T08:57:50.077Z,24.77
2017-08-08T09:00:17.866Z,25.11
2017-08-08T09:02:45.611Z,24.58
2017-08-08T09:05:13.432Z,24.87
2017-08-08T09:07:41.173Z,25.42
2017-08-08T09:10:08.969Z,25.15
2017-08-08T09:12:36.732Z,25.30
2017-08-08T09:15:04.384Z,25.40
2017-08-08T09:17:32.233Z,25.81
2017-08-08T09:19:59.935Z,25.80
2017-08-08T09:22:27.728Z,26.12
2017-08-08T09:24:55.445Z,26.48
2017-08-08T09:27:23.291Z,26.42
2017-08-08T09:29:51.002Z,26.37
2017-08-08T09:32:19.869Z,26.64
2017-08-08T09:34:49.652Z,26.84
2017-08-08T09:37:17.416Z,26.08
2017-08-08T09:39:45.530Z,26.15
2017-08-08T09:42:13.446Z,26.80
2017-08-08T09:44:41.147Z,27.02
2017-08-08T09:47:08.862Z,27.17
2017-08-08T09:49:36.619Z,27.53
2017-08-08T09:52:04.351Z,27.57
2017-08-08T09:54:32.976Z,27.62
2017-08-08T09:57:00.665Z,27.55
2017-08-08T09:59:28.361Z,27.30
2017-08-08T10:01:56.187Z,26.94
2017-08-08T10:04:23.956Z,26.89
2017-08-08T10:06:51.690Z,26.44
2017-08-08T10:09:19.418Z,26.83
2017-08-08T10:11:47.131Z,27.02
2017-08-08T10:14:15.091Z,27.22
2017-08-08T10:16:42.790Z,26.83
2017-08-08T10:19:10.548Z,26.52
2017-08-08T10:21:38.327Z,26.93
2017-08-08T10:24:06.092Z,27.14
2017-08-08T10:26:33.806Z,27.13
2017-08-08T10:29:01.523Z,27.12
2017-08-08T10:31:29.300Z,27.22
2017-08-08T10:33:57.069Z,27.40
2017-08-08T10:36:24.793Z,27.96
2017-08-08T10:38:52.571Z,28.11
2017-08-08T10:41:20.301Z,28.35
2017-08-08T10:43:47.978Z,27.38
2017-08-08T10:46:15.689Z,27.54
2017-08-08T10:48:43.443Z,27.52
2017-08-08T10:51:11.149Z,27.69
2017-08-08T10:53:38.945Z,27.97
2017-08-08T10:56:06.695Z,27.76
2017-08-08T10:58:34.434Z,28.01
2017-08-08T11:01:02.198Z,27.85
2017-08-08T11:03:29.885Z,27.78
2017-08-08T11:05:57.611Z,28.08
2017-08-08T11:08:25.487Z,27.71
2017-08-08T11:10:53.204Z,27.82
2017-08-08T11:13:20.883Z,27.46
2017-08-08T11:15:48.646Z,27.47
2017-08-08T11:18:16.359Z,27.71
2017-08-08T11:20:44.103Z,27.96
2017-08-08T11:23:11.899Z,28.34
2017-08-08T11:25:39.643Z,28.22
2017-08-08T11:28:07.615Z,27.69
2017-08-08T11:30:35.418Z,28.30
2017-08-08T11:33:03.516Z,28.15
2017-08-08T11:35:31.310Z,28.07
2017-08-08T11:37:59.829Z,27.97
2017-08-08T11:40:27.577Z,28.41
2017-08-08T11:42:55.430Z,28.63
2017-08-08T11:45:23.166Z,28.24
2017-08-08T11:47:50.932Z,28.21
2017-08-08T11:50:18.643Z,28.07
2017-08-08T11:52:46.513Z,28.38
2017-08-08T11:55:14.288Z,28.18
2017-08-08T11:57:42.126Z,28.57
2017-08-08T12:00:09.874Z,28.11
2017-08-08T12:02:37.601Z,28.39
2017-08-08T12:05:05.345Z,28.44
2017-08-08T12:07:33.065Z,27.85
2017-08-08T12:10:00.906Z,28.67
2017-08-08T12:12:28.714Z,28.72
2017-08-08T12:14:56.413Z,28.48
2017-08-08T12:17:24.203Z,28.68
2017-08-08T12:19:51.888Z,28.48
2017-08-08T12:22:19.807Z,28.43
2017-08-08T12:24:47.560Z,28.44
2017-08-08T12:27:15.358Z,28.13
2017-08-08T12:29:43.128Z,28.59
2017-08-08T12:32:10.901Z,28.37
2017-08-08T12:34:38.678Z,28.27
2017-08-08T12:37:06.484Z,28.73
2017-08-08T12:39:34.274Z,29.12
2017-08-08T12:42:02.042Z,28.67
2017-08-08T12:44:29.748Z,28.77
2017-08-08T12:46:57.658Z,29.02
2017-08-08T12:49:25.376Z,28.91
2017-08-08T12:51:53.076Z,28.87
2017-08-08T12:54:20.854Z,29.01
2017-08-08T12:56:48.605Z,29.14
2017-08-08T12:59:16.389Z,28.95
2017-08-08T13:01:44.175Z,29.05
2017-08-08T13:04:11.961Z,28.94
2017-08-08T13:06:39.755Z,29.05
2017-08-08T13:09:07.545Z,28.78
2017-08-08T13:11:35.258Z,28.81
2017-08-08T13:14:02.943Z,29.29
2017-08-08T13:16:30.675Z,29.16
2017-08-08T13:18:58.363Z,29.26
2017-08-08T13:21:26.426Z,29.08
2017-08-08T13:23:54.189Z,29.53
2017-08-08T13:26:21.877Z,29.48
2017-08-08T13:28:49.665Z,29.60
2017-08-08T13:31:17.372Z,29.78
2017-08-08T13:33:45.096Z,29.67
2017-08-08T13:36:12.990Z,29.94
2017-08-08T13:38:40.716Z,29.83
2017-08-08T13:41:08.499Z,29.02
2017-08-08T13:43:36.373Z,29.23
2017-08-08T13:46:04.101Z,29.33
2017-08-08T13:48:31.810Z,29.78
2017-08-08T13:50:59.528Z,29.79
2017-08-08T13:53:27.223Z,29.69
2017-08-08T13:55:54.982Z,29.90
2017-08-08T13:58:22.696Z,29.50
2017-08-08T14:00:50.450Z,29.67
2017-08-08T14:03:18.251Z,29.80
2017-08-08T14:05:46.046Z,29.96
2017-08-08T14:08:13.815Z,30.00
2017-08-08T14:10:41.607Z,29.67
2017-08-08T14:13:09.314Z,29.73
2017-08-08T14:15:38.034Z,29.66
2017-08-08T14:18:05.997Z,29.92
2017-08-08T14:20:33.735Z,30.08
2017-08-08T14:23:01.482Z,29.67
2017-08-08T14:25:29.330Z,29.62
2017-08-08T14:27:57.043Z,29.71
2017-08-08T14:30:24.912Z,29.54
2017-08-08T14:32:52.695Z,29.38
2017-08-08T14:35:20.451Z,29.51
2017-08-08T14:37:48.233Z,29.63
2017-08-08T14:40:15.999Z,29.87
2017-08-08T14:42:43.756Z,29.79
2017-08-08T14:45:11.514Z,29.85
2017-08-08T14:47:39.302Z,29.58
2017-08-08T14:50:07.044Z,29.26
2017-08-08T14:52:34.752Z,29.62
2017-08-08T14:55:02.537Z,29.57
2017-08-08T14:57:30.310Z,29.79
2017-08-08T14:59:58.060Z,29.56
2017-08-08T15:02:25.916Z,29.57
2017-08-08T15:04:53.657Z,29.50
2017-08-08T15:07:21.570Z,29.46
2017-08-08T15:09:51.372Z,29.57
2017-08-08T15:12:19.190Z,29.48
2017-08-08T15:14:46.932Z,29.49
2017-08-08T15:17:14.679Z,29.72
2017-08-08T15:19:42.392Z,29.51
2017-08-08T15:22:10.194Z,29.73
2017-08-08T15:24:37.995Z,29.55
2017-08-08T15:27:05.956Z,29.05
2017-08-08T15:29:33.697Z,29.00
2017-08-08T15:32:01.460Z,29.02
2017-08-08T15:34:29.343Z,29.04
2017-08-08T15:36:57.101Z,29.12
2017-08-08T15:39:24.810Z,29.21
2017-08-08T15:41:52.576Z,29.13
2017-08-08T15:44:20.293Z,28.81
2017-08-08T15:46:48.107Z,28.76
2017-08-08T15:49:15.789Z,28.53
2017-08-08T15:51:44.708Z,28.43
2017-08-08T15:54:12.474Z,28.31
2017-08-08T15:56:40.195Z,28.04
2017-08-08T15:59:07.949Z,27.85
2017-08-08T16:01:36.059Z,27.82
2017-08-08T16:04:03.744Z,27.60
2017-08-08T16:06:31.538Z,27.45
2017-08-08T16:08:59.306Z,27.30
2017-08-08T16:11:27.634Z,27.24
2017-08-08T16:13:55.517Z,27.17
2017-08-08T16:16:24.264Z,27.01
2017-08-08T16:18:52.017Z,26.98
2017-08-08T16:21:19.785Z,26.67
2017-08-08T16:23:47.547Z,26.56
2017-08-08T16:26:15.290Z,26.41
2017-08-08T16:28:43.065Z,26.35
2017-08-08T16:31:10.980Z,26.26
2017-08-08T16:33:38.781Z,26.26
2017-08-08T16:36:06.549Z,26.16
2017-08-08T16:38:34.292Z,26.10
2017-08-08T16:41:01.976Z,25.94
2017-08-08T16:43:29.740Z,25.92
2017-08-08T16:45:57.569Z,25.89
2017-08-08T16:48:25.963Z,25.90
2017-08-08T16:50:53.746Z,25.83
2017-08-08T16:53:22.372Z,25.65
2017-08-08T16:55:50.101Z,25.57
2017-08-08T16:58:18.051Z,25.51
2017-08-08T17:00:45.741Z,25.39
2017-08-08T17:03:14.632Z,25.46
2017-08-08T17:05:42.516Z,25.43
2017-08-08T17:08:10.211Z,25.23
2017-08-08T17:10:37.932Z,25.10
2017-08-08T17:13:05.700Z,25.07
2017-08-08T17:15:33.427Z,25.00
2017-08-08T17:18:01.171Z,24.97
2017-08-08T17:20:29.024Z,24.83
2017-08-08T17:22:56.742Z,24.74
2017-08-08T17:25:24.523Z,24.66
2017-08-08T17:27:52.313Z,24.59
2017-08-08T17:30:20.023Z,24.58
2017-08-08T17:32:47.892Z,24.49
2017-08-08T17:35:15.617Z,24.77
2017-08-08T17:37:43.333Z,24.71
2017-08-08T17:40:11.093Z,24.81
2017-08-08T17:42:38.812Z,24.68
2017-08-08T17:45:06.591Z,24.56
2017-08-08T17:47:34.313Z,24.49
2017-08-08T17:50:02.118Z,24.16
2017-08-08T17:52:29.878Z,24.19
2017-08-08T17:54:57.635Z,24.08
2017-08-08T17:57:25.366Z,24.08
2017-08-08T17:59:53.134Z,24.04
2017-08-08T18:02:20.905Z,24.07
2017-08-08T18:04:48.721Z,24.04
2017-08-08T18:07:16.489Z,23.94
2017-08-08T18:09:44.387Z,23.77
2017-08-08T18:12:12.100Z,23.68
2017-08-08T18:14:39.856Z,23.63
2017-08-08T18:17:07.680Z,23.64
2017-08-08T18:19:35.609Z,23.53
2017-08-08T18:22:03.356Z,23.54
2017-08-08T18:24:31.161Z,23.62
2017-08-08T18:26:58.936Z,23.41
2017-08-08T18:29:26.631Z,23.32
2017-08-08T18:31:54.439Z,23.15
2017-08-08T18:34:22.148Z,23.15
2017-08-08T18:36:50.609Z,23.11
2017-08-08T18:39:18.584Z,23.13
2017-08-08T18:41:46.452Z,23.04
2017-08-08T18:44:14.301Z,23.09
2017-08-08T18:46:42.230Z,23.03
2017-08-08T18:49:10.781Z,23.04
2017-08-08T18:51:38.541Z,22.80
2017-08-08T18:54:06.643Z,22.79
2017-08-08T18:56:34.536Z,22.78
2017-08-08T18:59:03.489Z,22.87
2017-08-08T19:01:31.334Z,22.72
2017-08-08T19:03:59.203Z,22.57
2017-08-08T19:06:26.982Z,22.61
2017-08-08T19:08:54.764Z,22.41
2017-08-08T19:11:22.502Z,22.31
2017-08-08T19:13:51.919Z,22.20
2017-08-08T19:16:20.013Z,22.27
2017-08-08T19:18:48.829Z,22.23
2017-08-08T19:21:16.588Z,22.21
2017-08-08T19:23:44.464Z,22.21
2017-08-08T19:26:12.312Z,22.27
2017-08-08T19:28:40.056Z,22.41
2017-08-08T19:31:08.001Z,22.18
2017-08-08T19:33:35.938Z,22.00
2017-08-08T19:36:04.557Z,21.99
2017-08-08T19:38:32.356Z,21.94
2017-08-08T19:41:00.479Z,21.83
2017-08-08T19:43:28.305Z,21.91
2017-08-08T19:45:56.119Z,21.95
2017-08-08T19:48:23.893Z,21.75
2017-08-08T19:50:51.673Z,21.66
2017-08-08T19:53:19.471Z,21.76
2017-08-08T19:55:48.143Z,21.63
2017-08-08T19:58:15.917Z,21.63
2017-08-08T20:00:43.779Z,21.72
2017-08-08T20:03:11.735Z,21.73
2017-08-08T20:05:39.512Z,21.52
2017-08-08T20:08:07.249Z,21.66
2017-08-08T20:10:35.000Z,21.29
2017-08-08T20:13:02.782Z,21.28
2017-08-08T20:15:30.491Z,21.19
2017-08-08T20:17:58.210Z,21.27
2017-08-08T20:20:26.095Z,21.18
2017-08-08T20:22:53.894Z,21.22
2017-08-08T20:25:22.492Z,21.05
2017-08-08T20:27:50.344Z,21.12
2017-08-08T20:30:18.119Z,21.21
2017-08-08T20:32:46.035Z,21.15
2017-08-08T20:35:13.799Z,21.09
2017-08-08T20:37:41.548Z,20.84
2017-08-08T20:40:09.482Z,20.85
2017-08-08T20:42:37.389Z,20.93
2017-08-08T20:45:05.093Z,20.98
2017-08-08T20:47:32.867Z,20.99
2017-08-08T20:50:00.590Z,20.96
2017-08-08T20:52:28.376Z,20.87
2017-08-08T20:54:56.211Z,20.80
2017-08-08T20:57:23.987Z,20.75
2017-08-08T20:59:51.925Z,20.74
2017-08-08T21:02:19.634Z,20.65
2017-08-08T21:04:47.355Z,20.61
2017-08-08T21:07:15.117Z,20.58
2017-08-08T21:09:42.878Z,20.47
2017-08-08T21:12:10.584Z,20.48
2017-08-08T21:14:38.355Z,20.52
2017-08-08T21:17:06.160Z,20.48
2017-08-08T21:19:33.900Z,20.48
2017-08-08T21:22:01.649Z,20.38
2017-08-08T21:24:29.370Z,20.37
2017-08-08T21:26:57.114Z,20.58
2017-08-08T21:29:24.822Z,20.36
2017-08-08T21:31:52.582Z,20.30
2017-08-08T21:34:20.360Z,20.24
2017-08-08T21:36:48.179Z,20.34
2017-08-08T21:39:15.894Z,20.16
2017-08-08T21:41:43.617Z,20.03
2017-08-08T21:44:11.406Z,19.95
2017-08-08T21:46:39.163Z,19.82
2017-08-08T21:49:06.949Z,19.75
2017-08-08T21:51:34.688Z,19.87
2017-08-08T21:54:02.500Z,19.97
2017-08-08T21:56:30.296Z,19.99
2017-08-08T21:58:58.037Z,19.86
2017-08-08T22:01:25.786Z,19.79
2017-08-08T22:03:53.519Z,19.68
2017-08-08T22:06:21.281Z,19.74
2017-08-08T22:08:49.059Z,19.71
2017-08-08T22:11:16.732Z,19.75
2017-08-08T22:13:44.436Z,19.69
2017-08-08T22:16:12.204Z,19.72
2017-08-08T22:18:39.969Z,19.80
2017-08-08T22:21:07.672Z,19.80
2017-08-08T22:23:35.504Z,19.76
2017-08-08T22:26:03.723Z,19.71
2017-08-08T22:28:32.398Z,19.48
2017-08-08T22:31:00.145Z,19.64
2017-08-08T22:33:27.836Z,19.56
2017-08-08T22:35:55.579Z,19.53
2017-08-08T22:38:23.376Z,19.54
2017-08-08T22:40:51.080Z,19.43
2017-08-08T22:43:18.873Z,19.43
2017-08-08T22:45:46.563Z,19.42
2017-08-08T22:48:14.302Z,19.38
2017-08-08T22:50:42.055Z,19.44
2017-08-08T22:53:09.785Z,19.32
2017-08-08T22:55:37.524Z,19.40
2017-08-08T22:58:05.322Z,19.38
2017-08-08T23:00:33.083Z,19.34
2017-08-08T23:03:01.558Z,19.27
2017-08-08T23:05:29.308Z,19.41
2017-08-08T23:07:56.998Z,19.33
2017-08-08T23:10:24.786Z,19.31
2017-08-08T23:12:52.481Z,19.47
2017-08-08T23:15:20.235Z,19.46
2017-08-08T23:17:47.951Z,19.38
2017-08-08T23:20:15.803Z,19.43
2017-08-08T23:22:43.507Z,19.53
2017-08-08T23:25:11.209Z,19.70
2017-08-08T23:27:38.952Z,19.92
2017-08-08T23:30:06.626Z,19.99
2017-08-08T23:32:34.678Z,20.02
2017-08-08T23:35:02.391Z,20.12
2017-08-08T23:37:35.778Z,20.16
2017-08-08T23:40:03.570Z,20.14
2017-08-08T23:42:31.666Z,20.06
2017-08-08T23:44:59.390Z,20.05
2017-08-08T23:47:27.105Z,19.96
2017-08-08T23:49:55.016Z,20.00
2017-08-08T23:52:22.727Z,19.90
2017-08-08T23:54:50.455Z,19.80
2017-08-08T23:57:18.220Z,19.66
2017-08-08T23:59:45.943Z,19.67
